sensor_id;sensor_type;location;lat;lon;timestamp;P1;durP1;ratioP1;P2;durP2;ratioP2
19810;SDS011;10065;49.632;8.346;2022-09-30T00:01:12;6.23;;;2.93;;
19810;SDS011;10065;49.632;8.346;2022-09-30T00:03:40;6.73;;;3.00;;
19810;SDS011;10065;49.632;8.346;2022-09-30T00:06:08;5.60;;;2.97;;
19810;SDS011;10065;49.632;8.346;2022-09-30T00:08:37;5.10;;;2.93;;
19810;SDS011;10065;49.632;8.346;2022-09-30T00:11:07;4.80;;;2.93;;
19810;SDS011;10065;49.632;8.346;2022-09-30T00:13:39;8.73;;;3.63;;
19810;SDS011;10065;49.632;8.346;2022-09-30T00:16:07;6.60;;;2.57;;
19810;SDS011;10065;49.632;8.346;2022-09-30T00:18:36;5.10;;;2.93;;
19810;SDS011;10065;49.632;8.346;2022-09-30T00:21:07;6.03;;;3.13;;
19810;SDS011;10065;49.632;8.346;2022-09-30T00:23:35;6.63;;;2.43;;
19810;SDS011;10065;49.632;8.346;2022-09-30T00:26:06;5.60;;;2.70;;
19810;SDS011;10065;49.632;8.346;2022-09-30T00:28:37;5.20;;;2.73;;
19810;SDS011;10065;49.632;8.346;2022-09-30T00:31:06;4.63;;;2.47;;
19810;SDS011;10065;49.632;8.346;2022-09-30T00:33:37;6.10;;;2.97;;
19810;SDS011;10065;49.632;8.346;2022-09-30T00:36:04;9.97;;;3.13;;
19810;SDS011;10065;49.632;8.346;2022-09-30T00:38:32;6.10;;;2.87;;
19810;SDS011;10065;49.632;8.346;2022-09-30T00:41:00;5.77;;;2.40;;
19810;SDS011;10065;49.632;8.346;2022-09-30T00:43:40;6.33;;;2.77;;
19810;SDS011;10065;49.632;8.346;2022-09-30T00:46:15;6.67;;;2.50;;
19810;SDS011;10065;49.632;8.346;2022-09-30T00:48:46;7.13;;;2.90;;
19810;SDS011;10065;49.632;8.346;2022-09-30T00:51:19;5.97;;;2.60;;
19810;SDS011;10065;49.632;8.346;2022-09-30T00:53:53;6.03;;;2.63;;
19810;SDS011;10065;49.632;8.346;2022-09-30T00:56:24;6.30;;;2.40;;
19810;SDS011;10065;49.632;8.346;2022-09-30T00:58:58;4.50;;;2.57;;
19810;SDS011;10065;49.632;8.346;2022-09-30T01:01:30;6.23;;;2.53;;
19810;SDS011;10065;49.632;8.346;2022-09-30T01:03:59;4.33;;;2.53;;
19810;SDS011;10065;49.632;8.346;2022-09-30T01:06:29;5.40;;;2.73;;
19810;SDS011;10065;49.632;8.346;2022-09-30T01:08:56;6.50;;;2.80;;
19810;SDS011;10065;49.632;8.346;2022-09-30T01:11:25;5.57;;;2.80;;
19810;SDS011;10065;49.632;8.346;2022-09-30T01:13:54;4.33;;;2.77;;
19810;SDS011;10065;49.632;8.346;2022-09-30T01:16:31;4.00;;;2.23;;
19810;SDS011;10065;49.632;8.346;2022-09-30T01:19:14;4.87;;;2.57;;
19810;SDS011;10065;49.632;8.346;2022-09-30T01:22:03;9.53;;;2.70;;
19810;SDS011;10065;49.632;8.346;2022-09-30T01:24:47;5.57;;;2.60;;
19810;SDS011;10065;49.632;8.346;2022-09-30T01:27:44;4.77;;;1.90;;
19810;SDS011;10065;49.632;8.346;2022-09-30T01:30:31;6.03;;;2.20;;
19810;SDS011;10065;49.632;8.346;2022-09-30T01:33:17;9.67;;;3.50;;
19810;SDS011;10065;49.632;8.346;2022-09-30T01:35:59;4.13;;;2.23;;
19810;SDS011;10065;49.632;8.346;2022-09-30T01:38:38;10.20;;;3.13;;
19810;SDS011;10065;49.632;8.346;2022-09-30T01:41:15;4.93;;;2.30;;
19810;SDS011;10065;49.632;8.346;2022-09-30T01:43:53;3.87;;;2.00;;
19810;SDS011;10065;49.632;8.346;2022-09-30T01:46:33;4.80;;;2.20;;
19810;SDS011;10065;49.632;8.346;2022-09-30T01:49:10;6.13;;;2.57;;
19810;SDS011;10065;49.632;8.346;2022-09-30T01:51:47;4.20;;;2.10;;
19810;SDS011;10065;49.632;8.346;2022-09-30T01:54:23;4.83;;;2.20;;
19810;SDS011;10065;49.632;8.346;2022-09-30T01:56:57;5.97;;;3.10;;
19810;SDS011;10065;49.632;8.346;2022-09-30T01:59:33;7.33;;;2.97;;
19810;SDS011;10065;49.632;8.346;2022-09-30T02:02:07;6.20;;;2.43;;
19810;SDS011;10065;49.632;8.346;2022-09-30T02:04:40;4.33;;;2.07;;
19810;SDS011;10065;49.632;8.346;2022-09-30T02:07:12;5.60;;;2.00;;
19810;SDS011;10065;49.632;8.346;2022-09-30T02:09:46;4.70;;;2.27;;
19810;SDS011;10065;49.632;8.346;2022-09-30T02:12:18;4.87;;;2.10;;
19810;SDS011;10065;49.632;8.346;2022-09-30T02:14:49;5.37;;;2.50;;
19810;SDS011;10065;49.632;8.346;2022-09-30T02:17:23;5.13;;;2.20;;
19810;SDS011;10065;49.632;8.346;2022-09-30T02:19:56;4.87;;;2.07;;
19810;SDS011;10065;49.632;8.346;2022-09-30T02:22:28;7.43;;;2.60;;
19810;SDS011;10065;49.632;8.346;2022-09-30T02:24:58;3.93;;;2.17;;
19810;SDS011;10065;49.632;8.346;2022-09-30T02:27:32;4.57;;;2.23;;
19810;SDS011;10065;49.632;8.346;2022-09-30T02:30:07;4.90;;;2.10;;
19810;SDS011;10065;49.632;8.346;2022-09-30T02:32:41;5.27;;;1.83;;
19810;SDS011;10065;49.632;8.346;2022-09-30T02:35:15;4.73;;;2.23;;
19810;SDS011;10065;49.632;8.346;2022-09-30T02:37:46;5.20;;;2.53;;
19810;SDS011;10065;49.632;8.346;2022-09-30T02:40:18;3.80;;;1.90;;
19810;SDS011;10065;49.632;8.346;2022-09-30T02:42:51;4.80;;;2.43;;
19810;SDS011;10065;49.632;8.346;2022-09-30T02:45:19;5.00;;;3.00;;
19810;SDS011;10065;49.632;8.346;2022-09-30T02:47:55;6.13;;;2.50;;
19810;SDS011;10065;49.632;8.346;2022-09-30T02:50:32;4.87;;;2.80;;
19810;SDS011;10065;49.632;8.346;2022-09-30T02:53:08;4.00;;;2.20;;
19810;SDS011;10065;49.632;8.346;2022-09-30T02:55:48;3.93;;;2.27;;
19810;SDS011;10065;49.632;8.346;2022-09-30T02:58:27;5.37;;;2.67;;
19810;SDS011;10065;49.632;8.346;2022-09-30T03:00:56;5.37;;;2.27;;
19810;SDS011;10065;49.632;8.346;2022-09-30T03:03:26;4.10;;;2.20;;
19810;SDS011;10065;49.632;8.346;2022-09-30T03:05:56;5.53;;;2.20;;
19810;SDS011;10065;49.632;8.346;2022-09-30T03:08:24;3.97;;;2.33;;
19810;SDS011;10065;49.632;8.346;2022-09-30T03:10:52;5.63;;;2.50;;
19810;SDS011;10065;49.632;8.346;2022-09-30T03:13:25;5.47;;;2.30;;
19810;SDS011;10065;49.632;8.346;2022-09-30T03:16:18;4.87;;;2.47;;
19810;SDS011;10065;49.632;8.346;2022-09-30T03:18:59;3.80;;;2.00;;
19810;SDS011;10065;49.632;8.346;2022-09-30T03:21:41;4.20;;;2.27;;
19810;SDS011;10065;49.632;8.346;2022-09-30T03:24:32;3.53;;;2.17;;
19810;SDS011;10065;49.632;8.346;2022-09-30T03:27:12;7.80;;;2.43;;
19810;SDS011;10065;49.632;8.346;2022-09-30T03:29:50;6.23;;;2.20;;
19810;SDS011;10065;49.632;8.346;2022-09-30T03:32:35;5.07;;;2.60;;
19810;SDS011;10065;49.632;8.346;2022-09-30T03:35:17;5.43;;;2.50;;
19810;SDS011;10065;49.632;8.346;2022-09-30T03:37:55;4.30;;;2.30;;
19810;SDS011;10065;49.632;8.346;2022-09-30T03:40:29;6.27;;;2.70;;
19810;SDS011;10065;49.632;8.346;2022-09-30T03:43:05;3.37;;;2.13;;
19810;SDS011;10065;49.632;8.346;2022-09-30T03:45:42;3.40;;;2.30;;
19810;SDS011;10065;49.632;8.346;2022-09-30T03:48:13;5.43;;;2.57;;
19810;SDS011;10065;49.632;8.346;2022-09-30T03:50:44;7.47;;;2.30;;
19810;SDS011;10065;49.632;8.346;2022-09-30T03:53:11;6.73;;;3.33;;
19810;SDS011;10065;49.632;8.346;2022-09-30T03:55:43;6.03;;;2.90;;
19810;SDS011;10065;49.632;8.346;2022-09-30T03:58:14;5.23;;;2.70;;
19810;SDS011;10065;49.632;8.346;2022-09-30T04:00:44;4.83;;;3.00;;
19810;SDS011;10065;49.632;8.346;2022-09-30T04:03:14;10.97;;;2.90;;
19810;SDS011;10065;49.632;8.346;2022-09-30T04:05:43;5.07;;;2.53;;
19810;SDS011;10065;49.632;8.346;2022-09-30T04:08:11;4.43;;;2.40;;
19810;SDS011;10065;49.632;8.346;2022-09-30T04:10:39;4.73;;;2.07;;
19810;SDS011;10065;49.632;8.346;2022-09-30T04:13:07;4.37;;;2.43;;
19810;SDS011;10065;49.632;8.346;2022-09-30T04:15:35;5.20;;;2.30;;
19810;SDS011;10065;49.632;8.346;2022-09-30T04:18:03;4.93;;;2.43;;
19810;SDS011;10065;49.632;8.346;2022-09-30T04:20:31;4.43;;;2.30;;
19810;SDS011;10065;49.632;8.346;2022-09-30T04:23:00;4.17;;;2.33;;
19810;SDS011;10065;49.632;8.346;2022-09-30T04:25:28;4.83;;;2.30;;
19810;SDS011;10065;49.632;8.346;2022-09-30T04:27:56;5.03;;;1.87;;
19810;SDS011;10065;49.632;8.346;2022-09-30T04:30:24;6.20;;;2.40;;
19810;SDS011;10065;49.632;8.346;2022-09-30T04:32:57;5.60;;;2.50;;
19810;SDS011;10065;49.632;8.346;2022-09-30T04:35:25;4.53;;;2.50;;
19810;SDS011;10065;49.632;8.346;2022-09-30T04:37:55;4.07;;;2.43;;
19810;SDS011;10065;49.632;8.346;2022-09-30T04:40:24;3.37;;;2.10;;
19810;SDS011;10065;49.632;8.346;2022-09-30T04:42:54;8.37;;;2.63;;
19810;SDS011;10065;49.632;8.346;2022-09-30T04:45:23;5.07;;;2.50;;
19810;SDS011;10065;49.632;8.346;2022-09-30T04:47:51;4.90;;;1.90;;
19810;SDS011;10065;49.632;8.346;2022-09-30T04:50:18;4.00;;;2.43;;
19810;SDS011;10065;49.632;8.346;2022-09-30T04:52:46;6.13;;;2.80;;
19810;SDS011;10065;49.632;8.346;2022-09-30T04:55:14;8.37;;;2.70;;
19810;SDS011;10065;49.632;8.346;2022-09-30T04:57:43;4.83;;;2.70;;
19810;SDS011;10065;49.632;8.346;2022-09-30T05:00:11;5.07;;;2.90;;
19810;SDS011;10065;49.632;8.346;2022-09-30T05:02:41;6.07;;;2.70;;
19810;SDS011;10065;49.632;8.346;2022-09-30T05:05:10;5.67;;;3.30;;
19810;SDS011;10065;49.632;8.346;2022-09-30T05:07:37;7.67;;;3.53;;
19810;SDS011;10065;49.632;8.346;2022-09-30T05:10:06;6.83;;;3.67;;
19810;SDS011;10065;49.632;8.346;2022-09-30T05:12:35;7.97;;;3.60;;
19810;SDS011;10065;49.632;8.346;2022-09-30T05:15:04;6.20;;;3.53;;
19810;SDS011;10065;49.632;8.346;2022-09-30T05:17:32;8.80;;;3.57;;
19810;SDS011;10065;49.632;8.346;2022-09-30T05:20:00;6.73;;;3.53;;
19810;SDS011;10065;49.632;8.346;2022-09-30T05:22:29;10.20;;;4.57;;
19810;SDS011;10065;49.632;8.346;2022-09-30T05:24:56;10.43;;;4.97;;
19810;SDS011;10065;49.632;8.346;2022-09-30T05:27:24;7.50;;;4.70;;
19810;SDS011;10065;49.632;8.346;2022-09-30T05:29:52;8.87;;;4.77;;
19810;SDS011;10065;49.632;8.346;2022-09-30T05:32:21;11.53;;;4.37;;
19810;SDS011;10065;49.632;8.346;2022-09-30T05:34:50;9.73;;;4.57;;
19810;SDS011;10065;49.632;8.346;2022-09-30T05:37:20;10.77;;;4.83;;
19810;SDS011;10065;49.632;8.346;2022-09-30T05:39:48;8.23;;;4.47;;
19810;SDS011;10065;49.632;8.346;2022-09-30T05:42:15;11.70;;;5.03;;
19810;SDS011;10065;49.632;8.346;2022-09-30T05:44:43;8.50;;;4.50;;
19810;SDS011;10065;49.632;8.346;2022-09-30T05:47:11;8.47;;;4.67;;
19810;SDS011;10065;49.632;8.346;2022-09-30T05:49:40;6.70;;;4.77;;
19810;SDS011;10065;49.632;8.346;2022-09-30T05:52:08;11.77;;;5.27;;
19810;SDS011;10065;49.632;8.346;2022-09-30T05:54:36;12.90;;;4.87;;
19810;SDS011;10065;49.632;8.346;2022-09-30T05:57:05;10.47;;;5.07;;
19810;SDS011;10065;49.632;8.346;2022-09-30T05:59:33;9.07;;;4.83;;
19810;SDS011;10065;49.632;8.346;2022-09-30T06:02:03;9.67;;;4.70;;
19810;SDS011;10065;49.632;8.346;2022-09-30T06:04:31;8.53;;;4.70;;
19810;SDS011;10065;49.632;8.346;2022-09-30T06:07:00;13.30;;;4.43;;
19810;SDS011;10065;49.632;8.346;2022-09-30T06:09:33;13.57;;;5.13;;
19810;SDS011;10065;49.632;8.346;2022-09-30T06:12:01;9.47;;;4.57;;
19810;SDS011;10065;49.632;8.346;2022-09-30T06:14:29;9.20;;;4.50;;
19810;SDS011;10065;49.632;8.346;2022-09-30T06:16:56;9.73;;;3.77;;
19810;SDS011;10065;49.632;8.346;2022-09-30T06:19:25;7.37;;;4.37;;
19810;SDS011;10065;49.632;8.346;2022-09-30T06:21:56;12.30;;;4.73;;
19810;SDS011;10065;49.632;8.346;2022-09-30T06:24:25;7.27;;;4.80;;
19810;SDS011;10065;49.632;8.346;2022-09-30T06:26:53;8.57;;;5.00;;
19810;SDS011;10065;49.632;8.346;2022-09-30T06:29:20;12.10;;;5.60;;
19810;SDS011;10065;49.632;8.346;2022-09-30T06:31:48;8.97;;;5.23;;
19810;SDS011;10065;49.632;8.346;2022-09-30T06:34:16;11.30;;;5.13;;
19810;SDS011;10065;49.632;8.346;2022-09-30T06:36:44;11.73;;;4.90;;
19810;SDS011;10065;49.632;8.346;2022-09-30T06:39:11;7.63;;;4.47;;
19810;SDS011;10065;49.632;8.346;2022-09-30T06:41:41;9.50;;;4.43;;
19810;SDS011;10065;49.632;8.346;2022-09-30T06:44:09;6.70;;;4.00;;
19810;SDS011;10065;49.632;8.346;2022-09-30T06:46:37;5.80;;;3.87;;
19810;SDS011;10065;49.632;8.346;2022-09-30T06:49:18;5.93;;;3.77;;
19810;SDS011;10065;49.632;8.346;2022-09-30T06:51:46;7.60;;;3.87;;
19810;SDS011;10065;49.632;8.346;2022-09-30T06:54:14;8.77;;;4.30;;
19810;SDS011;10065;49.632;8.346;2022-09-30T06:56:44;7.00;;;3.97;;
19810;SDS011;10065;49.632;8.346;2022-09-30T06:59:13;9.17;;;4.13;;
19810;SDS011;10065;49.632;8.346;2022-09-30T07:01:42;8.67;;;4.70;;
19810;SDS011;10065;49.632;8.346;2022-09-30T07:04:10;8.90;;;4.77;;
19810;SDS011;10065;49.632;8.346;2022-09-30T07:06:38;9.13;;;4.70;;
19810;SDS011;10065;49.632;8.346;2022-09-30T07:09:07;9.73;;;5.10;;
19810;SDS011;10065;49.632;8.346;2022-09-30T07:11:36;8.27;;;5.03;;
19810;SDS011;10065;49.632;8.346;2022-09-30T07:14:06;9.17;;;5.00;;
19810;SDS011;10065;49.632;8.346;2022-09-30T07:16:35;10.03;;;5.90;;
19810;SDS011;10065;49.632;8.346;2022-09-30T07:19:04;10.00;;;5.20;;
19810;SDS011;10065;49.632;8.346;2022-09-30T07:21:34;12.70;;;6.23;;
19810;SDS011;10065;49.632;8.346;2022-09-30T07:24:01;10.50;;;6.80;;
19810;SDS011;10065;49.632;8.346;2022-09-30T07:26:30;10.83;;;6.57;;
19810;SDS011;10065;49.632;8.346;2022-09-30T07:28:58;13.63;;;6.73;;
19810;SDS011;10065;49.632;8.346;2022-09-30T07:31:27;9.77;;;6.30;;
19810;SDS011;10065;49.632;8.346;2022-09-30T07:34:00;11.13;;;6.23;;
19810;SDS011;10065;49.632;8.346;2022-09-30T07:36:28;8.10;;;5.90;;
19810;SDS011;10065;49.632;8.346;2022-09-30T07:38:59;9.30;;;6.37;;
19810;SDS011;10065;49.632;8.346;2022-09-30T07:41:32;14.07;;;6.30;;
19810;SDS011;10065;49.632;8.346;2022-09-30T07:44:01;11.37;;;6.70;;
19810;SDS011;10065;49.632;8.346;2022-09-30T07:46:34;11.43;;;6.07;;
19810;SDS011;10065;49.632;8.346;2022-09-30T07:49:04;10.50;;;6.53;;
19810;SDS011;10065;49.632;8.346;2022-09-30T07:51:35;15.03;;;6.90;;
19810;SDS011;10065;49.632;8.346;2022-09-30T07:54:06;10.47;;;6.30;;
19810;SDS011;10065;49.632;8.346;2022-09-30T07:56:35;12.63;;;6.87;;
19810;SDS011;10065;49.632;8.346;2022-09-30T07:59:23;14.57;;;6.73;;
19810;SDS011;10065;49.632;8.346;2022-09-30T08:01:53;11.23;;;7.33;;
19810;SDS011;10065;49.632;8.346;2022-09-30T08:04:22;13.07;;;6.97;;
19810;SDS011;10065;49.632;8.346;2022-09-30T08:06:51;13.23;;;7.40;;
19810;SDS011;10065;49.632;8.346;2022-09-30T08:09:21;12.57;;;7.43;;
19810;SDS011;10065;49.632;8.346;2022-09-30T08:11:50;14.87;;;8.17;;
19810;SDS011;10065;49.632;8.346;2022-09-30T08:14:18;12.20;;;7.37;;
19810;SDS011;10065;49.632;8.346;2022-09-30T08:16:48;15.03;;;7.37;;
19810;SDS011;10065;49.632;8.346;2022-09-30T08:19:21;12.93;;;7.60;;
19810;SDS011;10065;49.632;8.346;2022-09-30T08:21:50;13.53;;;7.33;;
19810;SDS011;10065;49.632;8.346;2022-09-30T08:24:19;12.23;;;7.77;;
19810;SDS011;10065;49.632;8.346;2022-09-30T08:26:48;13.00;;;7.50;;
19810;SDS011;10065;49.632;8.346;2022-09-30T08:29:15;12.37;;;7.97;;
19810;SDS011;10065;49.632;8.346;2022-09-30T08:31:50;16.27;;;9.73;;
19810;SDS011;10065;49.632;8.346;2022-09-30T08:34:19;16.73;;;9.47;;
19810;SDS011;10065;49.632;8.346;2022-09-30T08:36:47;12.93;;;8.97;;
19810;SDS011;10065;49.632;8.346;2022-09-30T08:39:15;14.90;;;8.90;;
19810;SDS011;10065;49.632;8.346;2022-09-30T08:41:45;19.53;;;8.13;;
19810;SDS011;10065;49.632;8.346;2022-09-30T08:44:48;11.93;;;8.47;;
19810;SDS011;10065;49.632;8.346;2022-09-30T08:47:25;10.40;;;7.77;;
19810;SDS011;10065;49.632;8.346;2022-09-30T08:50:09;12.37;;;8.33;;
19810;SDS011;10065;49.632;8.346;2022-09-30T08:52:47;14.70;;;8.27;;
19810;SDS011;10065;49.632;8.346;2022-09-30T08:55:19;10.30;;;7.17;;
19810;SDS011;10065;49.632;8.346;2022-09-30T08:57:49;12.07;;;6.57;;
19810;SDS011;10065;49.632;8.346;2022-09-30T09:00:19;8.15;;;6.65;;
19810;SDS011;10065;49.632;8.346;2022-09-30T09:02:48;10.90;;;7.38;;
19810;SDS011;10065;49.632;8.346;2022-09-30T09:05:23;11.82;;;6.72;;
19810;SDS011;10065;49.632;8.346;2022-09-30T09:07:58;10.98;;;7.40;;
19810;SDS011;10065;49.632;8.346;2022-09-30T09:10:33;11.35;;;6.75;;
19810;SDS011;10065;49.632;8.346;2022-09-30T09:13:09;7.75;;;6.00;;
19810;SDS011;10065;49.632;8.346;2022-09-30T09:15:47;10.38;;;6.30;;
19810;SDS011;10065;49.632;8.346;2022-09-30T09:18:37;9.30;;;7.00;;
19810;SDS011;10065;49.632;8.346;2022-09-30T09:21:21;11.55;;;7.13;;
19810;SDS011;10065;49.632;8.346;2022-09-30T09:23:52;13.77;;;6.68;;
19810;SDS011;10065;49.632;8.346;2022-09-30T09:26:23;12.63;;;7.03;;
19810;SDS011;10065;49.632;8.346;2022-09-30T09:29:00;8.40;;;6.43;;
19810;SDS011;10065;49.632;8.346;2022-09-30T09:31:34;10.32;;;6.72;;
19810;SDS011;10065;49.632;8.346;2022-09-30T09:34:06;8.82;;;6.93;;
19810;SDS011;10065;49.632;8.346;2022-09-30T09:36:43;9.90;;;6.20;;
19810;SDS011;10065;49.632;8.346;2022-09-30T09:39:21;11.52;;;8.20;;
19810;SDS011;10065;49.632;8.346;2022-09-30T09:42:21;12.32;;;7.10;;
19810;SDS011;10065;49.632;8.346;2022-09-30T09:44:58;10.35;;;6.43;;
19810;SDS011;10065;49.632;8.346;2022-09-30T09:47:29;11.05;;;7.47;;
19810;SDS011;10065;49.632;8.346;2022-09-30T09:49:57;14.20;;;7.15;;
19810;SDS011;10065;49.632;8.346;2022-09-30T09:55:24;9.65;;;7.10;;
19810;SDS011;10065;49.632;8.346;2022-09-30T09:58:03;16.10;;;7.88;;
19810;SDS011;10065;49.632;8.346;2022-09-30T10:00:31;10.33;;;6.13;;
19810;SDS011;10065;49.632;8.346;2022-09-30T10:03:17;13.30;;;7.20;;
19810;SDS011;10065;49.632;8.346;2022-09-30T10:05:57;12.33;;;6.97;;
19810;SDS011;10065;49.632;8.346;2022-09-30T10:08:29;10.07;;;6.93;;
19810;SDS011;10065;49.632;8.346;2022-09-30T10:10:59;9.10;;;7.13;;
19810;SDS011;10065;49.632;8.346;2022-09-30T10:13:29;11.33;;;7.20;;
19810;SDS011;10065;49.632;8.346;2022-09-30T10:15:58;10.30;;;6.97;;
19810;SDS011;10065;49.632;8.346;2022-09-30T10:18:28;11.53;;;7.70;;
19810;SDS011;10065;49.632;8.346;2022-09-30T10:20:59;11.93;;;7.30;;
19810;SDS011;10065;49.632;8.346;2022-09-30T10:23:30;14.07;;;8.27;;
19810;SDS011;10065;49.632;8.346;2022-09-30T10:26:01;12.87;;;6.80;;
19810;SDS011;10065;49.632;8.346;2022-09-30T10:28:32;9.73;;;6.60;;
19810;SDS011;10065;49.632;8.346;2022-09-30T10:31:02;10.10;;;5.50;;
19810;SDS011;10065;49.632;8.346;2022-09-30T10:33:34;11.87;;;5.90;;
19810;SDS011;10065;49.632;8.346;2022-09-30T10:36:09;8.63;;;5.00;;
19810;SDS011;10065;49.632;8.346;2022-09-30T10:38:46;9.63;;;5.73;;
19810;SDS011;10065;49.632;8.346;2022-09-30T10:41:30;9.63;;;5.50;;
19810;SDS011;10065;49.632;8.346;2022-09-30T10:44:00;8.77;;;4.57;;
19810;SDS011;10065;49.632;8.346;2022-09-30T10:46:30;8.20;;;5.73;;
19810;SDS011;10065;49.632;8.346;2022-09-30T10:49:06;11.43;;;5.70;;
19810;SDS011;10065;49.632;8.346;2022-09-30T10:51:36;10.00;;;4.70;;
19810;SDS011;10065;49.632;8.346;2022-09-30T10:54:06;9.83;;;5.80;;
19810;SDS011;10065;49.632;8.346;2022-09-30T10:56:35;14.33;;;5.30;;
19810;SDS011;10065;49.632;8.346;2022-09-30T11:01:59;7.60;;;4.77;;
19810;SDS011;10065;49.632;8.346;2022-09-30T11:04:34;10.10;;;4.80;;
19810;SDS011;10065;49.632;8.346;2022-09-30T11:07:11;11.23;;;4.90;;
19810;SDS011;10065;49.632;8.346;2022-09-30T11:09:45;7.63;;;4.30;;
19810;SDS011;10065;49.632;8.346;2022-09-30T11:12:22;9.13;;;4.73;;
19810;SDS011;10065;49.632;8.346;2022-09-30T11:14:57;8.00;;;4.13;;
19810;SDS011;10065;49.632;8.346;2022-09-30T11:17:31;7.50;;;4.90;;
19810;SDS011;10065;49.632;8.346;2022-09-30T11:20:06;6.95;;;4.45;;
19810;SDS011;10065;49.632;8.346;2022-09-30T11:22:42;8.13;;;4.50;;
19810;SDS011;10065;49.632;8.346;2022-09-30T11:25:18;6.95;;;4.07;;
19810;SDS011;10065;49.632;8.346;2022-09-30T11:27:55;13.35;;;4.57;;
19810;SDS011;10065;49.632;8.346;2022-09-30T11:30:30;6.90;;;3.30;;
19810;SDS011;10065;49.632;8.346;2022-09-30T11:33:06;9.93;;;3.30;;
19810;SDS011;10065;49.632;8.346;2022-09-30T11:35:50;6.15;;;2.85;;
19810;SDS011;10065;49.632;8.346;2022-09-30T11:38:31;6.18;;;2.50;;
19810;SDS011;10065;49.632;8.346;2022-09-30T11:41:10;12.90;;;3.22;;
19810;SDS011;10065;49.632;8.346;2022-09-30T11:43:51;4.15;;;2.10;;
19810;SDS011;10065;49.632;8.346;2022-09-30T11:49:32;4.63;;;2.20;;
19810;SDS011;10065;49.632;8.346;2022-09-30T11:52:19;3.67;;;1.92;;
19810;SDS011;10065;49.632;8.346;2022-09-30T11:54:58;6.90;;;2.03;;
19810;SDS011;10065;49.632;8.346;2022-09-30T11:57:42;5.93;;;2.10;;
19810;SDS011;10065;49.632;8.346;2022-09-30T12:00:17;4.73;;;1.80;;
19810;SDS011;10065;49.632;8.346;2022-09-30T12:02:46;5.23;;;1.80;;
19810;SDS011;10065;49.632;8.346;2022-09-30T12:05:17;5.53;;;1.70;;
19810;SDS011;10065;49.632;8.346;2022-09-30T12:07:49;7.00;;;1.47;;
19810;SDS011;10065;49.632;8.346;2022-09-30T12:10:22;2.70;;;1.27;;
19810;SDS011;10065;49.632;8.346;2022-09-30T12:12:55;5.73;;;2.00;;
19810;SDS011;10065;49.632;8.346;2022-09-30T12:15:27;4.13;;;1.83;;
19810;SDS011;10065;49.632;8.346;2022-09-30T12:17:57;7.70;;;2.20;;
19810;SDS011;10065;49.632;8.346;2022-09-30T12:20:29;4.93;;;1.60;;
19810;SDS011;10065;49.632;8.346;2022-09-30T12:23:02;8.07;;;1.80;;
19810;SDS011;10065;49.632;8.346;2022-09-30T12:25:38;6.63;;;2.33;;
19810;SDS011;10065;49.632;8.346;2022-09-30T12:28:13;5.70;;;2.50;;
19810;SDS011;10065;49.632;8.346;2022-09-30T12:31:11;4.93;;;2.00;;
19810;SDS011;10065;49.632;8.346;2022-09-30T12:33:51;4.83;;;1.73;;
19810;SDS011;10065;49.632;8.346;2022-09-30T12:36:36;7.00;;;1.87;;
19810;SDS011;10065;49.632;8.346;2022-09-30T12:39:26;5.43;;;1.70;;
19810;SDS011;10065;49.632;8.346;2022-09-30T12:48:10;6.10;;;1.53;;
19810;SDS011;10065;49.632;8.346;2022-09-30T12:50:44;3.20;;;1.40;;
19810;SDS011;10065;49.632;8.346;2022-09-30T12:53:16;8.07;;;2.00;;
19810;SDS011;10065;49.632;8.346;2022-09-30T12:55:48;3.83;;;1.70;;
19810;SDS011;10065;49.632;8.346;2022-09-30T12:58:20;4.47;;;1.73;;
19810;SDS011;10065;49.632;8.346;2022-09-30T13:01:01;4.23;;;1.50;;
19810;SDS011;10065;49.632;8.346;2022-09-30T13:03:47;5.20;;;1.60;;
19810;SDS011;10065;49.632;8.346;2022-09-30T13:06:17;5.77;;;1.83;;
19810;SDS011;10065;49.632;8.346;2022-09-30T13:08:47;4.80;;;1.63;;
19810;SDS011;10065;49.632;8.346;2022-09-30T13:11:34;3.70;;;1.57;;
19810;SDS011;10065;49.632;8.346;2022-09-30T13:14:13;4.30;;;1.50;;
19810;SDS011;10065;49.632;8.346;2022-09-30T13:17:20;5.37;;;1.83;;
19810;SDS011;10065;49.632;8.346;2022-09-30T13:19:51;7.37;;;1.97;;
19810;SDS011;10065;49.632;8.346;2022-09-30T13:25:24;5.07;;;2.03;;
19810;SDS011;10065;49.632;8.346;2022-09-30T13:27:53;5.30;;;1.70;;
19810;SDS011;10065;49.632;8.346;2022-09-30T13:33:43;3.23;;;1.87;;
19810;SDS011;10065;49.632;8.346;2022-09-30T13:36:25;5.33;;;2.00;;
19810;SDS011;10065;49.632;8.346;2022-09-30T13:39:05;6.53;;;1.87;;
19810;SDS011;10065;49.632;8.346;2022-09-30T13:42:05;4.50;;;2.00;;
19810;SDS011;10065;49.632;8.346;2022-09-30T13:44:54;3.90;;;1.53;;
19810;SDS011;10065;49.632;8.346;2022-09-30T13:47:27;4.53;;;1.83;;
19810;SDS011;10065;49.632;8.346;2022-09-30T13:50:02;3.40;;;2.00;;
19810;SDS011;10065;49.632;8.346;2022-09-30T13:52:39;6.10;;;2.33;;
19810;SDS011;10065;49.632;8.346;2022-09-30T13:55:13;8.20;;;2.03;;
19810;SDS011;10065;49.632;8.346;2022-09-30T13:57:47;5.07;;;2.10;;
19810;SDS011;10065;49.632;8.346;2022-09-30T14:00:25;3.20;;;1.87;;
19810;SDS011;10065;49.632;8.346;2022-09-30T14:03:13;6.13;;;2.03;;
19810;SDS011;10065;49.632;8.346;2022-09-30T14:05:55;5.33;;;2.13;;
19810;SDS011;10065;49.632;8.346;2022-09-30T14:08:40;4.80;;;2.27;;
19810;SDS011;10065;49.632;8.346;2022-09-30T14:11:25;6.63;;;2.60;;
19810;SDS011;10065;49.632;8.346;2022-09-30T14:14:12;3.87;;;2.30;;
19810;SDS011;10065;49.632;8.346;2022-09-30T14:19:59;4.77;;;2.47;;
19810;SDS011;10065;49.632;8.346;2022-09-30T14:22:40;4.97;;;2.27;;
19810;SDS011;10065;49.632;8.346;2022-09-30T14:25:12;4.20;;;1.90;;
19810;SDS011;10065;49.632;8.346;2022-09-30T14:27:48;4.37;;;2.10;;
19810;SDS011;10065;49.632;8.346;2022-09-30T14:30:23;4.30;;;2.30;;
19810;SDS011;10065;49.632;8.346;2022-09-30T14:32:52;4.77;;;2.37;;
19810;SDS011;10065;49.632;8.346;2022-09-30T14:35:24;5.47;;;2.10;;
19810;SDS011;10065;49.632;8.346;2022-09-30T14:37:57;4.47;;;2.50;;
19810;SDS011;10065;49.632;8.346;2022-09-30T14:40:28;4.40;;;2.50;;
19810;SDS011;10065;49.632;8.346;2022-09-30T14:42:58;7.50;;;2.40;;
19810;SDS011;10065;49.632;8.346;2022-09-30T14:45:30;7.27;;;2.00;;
19810;SDS011;10065;49.632;8.346;2022-09-30T14:48:01;5.63;;;2.07;;
19810;SDS011;10065;49.632;8.346;2022-09-30T14:50:34;6.10;;;2.00;;
19810;SDS011;10065;49.632;8.346;2022-09-30T14:53:17;4.53;;;1.90;;
19810;SDS011;10065;49.632;8.346;2022-09-30T14:55:50;6.73;;;1.97;;
19810;SDS011;10065;49.632;8.346;2022-09-30T14:58:19;5.40;;;2.07;;
19810;SDS011;10065;49.632;8.346;2022-09-30T15:00:58;5.27;;;1.80;;
19810;SDS011;10065;49.632;8.346;2022-09-30T15:03:28;7.43;;;2.63;;
19810;SDS011;10065;49.632;8.346;2022-09-30T15:05:57;6.53;;;2.40;;
19810;SDS011;10065;49.632;8.346;2022-09-30T15:08:26;4.40;;;1.80;;
19810;SDS011;10065;49.632;8.346;2022-09-30T15:10:54;6.67;;;2.10;;
19810;SDS011;10065;49.632;8.346;2022-09-30T15:13:23;4.13;;;1.97;;
19810;SDS011;10065;49.632;8.346;2022-09-30T15:15:52;4.97;;;2.10;;
19810;SDS011;10065;49.632;8.346;2022-09-30T15:18:30;5.20;;;2.23;;
19810;SDS011;10065;49.632;8.346;2022-09-30T15:21:03;5.40;;;2.23;;
19810;SDS011;10065;49.632;8.346;2022-09-30T15:23:37;4.03;;;2.17;;
19810;SDS011;10065;49.632;8.346;2022-09-30T15:26:09;6.20;;;2.10;;
19810;SDS011;10065;49.632;8.346;2022-09-30T15:28:38;4.67;;;1.90;;
19810;SDS011;10065;49.632;8.346;2022-09-30T15:31:05;5.97;;;2.20;;
19810;SDS011;10065;49.632;8.346;2022-09-30T15:33:45;6.33;;;1.63;;
19810;SDS011;10065;49.632;8.346;2022-09-30T15:36:13;3.77;;;1.87;;
19810;SDS011;10065;49.632;8.346;2022-09-30T15:38:46;4.27;;;2.10;;
19810;SDS011;10065;49.632;8.346;2022-09-30T15:41:15;5.97;;;1.90;;
19810;SDS011;10065;49.632;8.346;2022-09-30T15:43:44;3.83;;;2.00;;
19810;SDS011;10065;49.632;8.346;2022-09-30T15:48:54;7.53;;;1.73;;